Oceanport, New Jersey
Current Conditions -  °F | °C
As of 11:35 PM on Saturday 22 Nov 2014 (Local Time) from KBLM Reporting Station
Overcast Overcast  
Wind Chill: 36°   Ceiling: 12000
Heat Index: 43°   Visibility: 10mi
Dew Point: 19°   Wind: 13mph
Humidity: 39%   Direction: 240°WSW
Pressure: 30.23"   Gusts: 17mph
Location:  40.32°N, 74.02°W
Report Text: KBLM 230435Z AUTO 24011G15KT 10SM OVC120 06/M07 A3023 RMK AO1
Loading
Personal Weather Stations






























Interactive Weather Map New forecast layout! Learn more

10-Day Weather Forecast

Advertisements
Track Severe Weather on mobile